E16 weather

San Martin Airport
San Martin, California, United States

Public forecast

Using degrees Fahrenheit for public forecast. Weather courtesy of forecast.io.

Current aviation weather report (METAR) for San Martin Airport

Retrieved UTC (0 seconds ago):

Closest aviation forecast (TAF) to San Martin Airport

Closest forecast is Norman Y. Mineta San Jose International Airport, 23.2 nm (42.9 km) NW. Retrieved 2019/11/14 12:42 UTC (4 minutes ago):

TAF KSJC 141140Z 1412/1512 14005KT P6SM SCT017 BKN150 TEMPO 1412/1416 BKN015 FM142100 32012G18KT P6SM BKN025 BKN120 FM150400 34005KT P6SM BKN020 BKN100 FM150800 VRB03KT P6SM BKN020 BKN100